Time;durP1;ratioP1;P1;durP2;ratioP2;P2;SDS_P1;SDS_P2;PMS_P1;PMS_P2;Temp;Humidity;BMP_temperature;BMP_pressure;BME280_temperature;BME280_humidity;BME280_pressure;Samples;Min_cycle;Max_cycle;Signal;HPM_P1;HPM_P2
2021/04/23 00:01:34;;;;;;;13.07;3.88;;;;;;;;;;5133281;27;20057;-83
2021/04/23 00:04:04;;;;;;;14.20;4.75;;;;;;;;;;5132210;27;20454;-83
2021/04/23 00:06:36;;;;;;;13.18;4.60;;;;;;;;;;5114971;27;20398;-83
2021/04/23 00:09:22;;;;;;;13.38;4.57;;;;;;;;;;5132089;27;20050;-83
2021/04/23 00:11:52;;;;;;;12.40;4.55;;;;;;;;;;5133299;27;20133;-83
2021/04/23 00:14:20;;;;;;;10.05;4.07;;;;;;;;;;5132076;27;20110;-82
2021/04/23 00:16:46;;;;;;;12.65;4.38;;;;;;;;;;5131878;27;20039;-83
2021/04/23 00:19:13;;;;;;;11.13;4.53;;;;;;;;;;5133054;27;20470;-83
2021/04/23 00:21:39;;;;;;;11.88;4.95;;;;;;;;;;5131860;27;20096;-83
2021/04/23 00:24:05;;;;;;;13.60;4.30;;;;;;;;;;5114914;28;20114;-83
2021/04/23 00:26:31;;;;;;;10.55;4.28;;;;;;;;;;5132936;27;20054;-83
2021/04/23 00:28:57;;;;;;;9.80;3.95;;;;;;;;;;5133037;27;20038;-82
2021/04/23 00:31:23;;;;;;;12.60;4.32;;;;;;;;;;5131842;27;20114;-83
2021/04/23 00:33:49;;;;;;;9.65;3.90;;;;;;;;;;5132528;27;20043;-83
2021/04/23 00:36:15;;;;;;;11.27;5.40;;;;;;;;;;5136986;27;20089;-83
2021/04/23 00:38:41;;;;;;;10.70;4.15;;;;;;;;;;5137086;27;20043;-83
2021/04/23 00:41:12;;;;;;;9.18;4.60;;;;;;;;;;5137000;27;20057;-80
2021/04/23 00:43:39;;;;;;;11.50;4.68;;;;;;;;;;5135978;27;20035;-83
2021/04/23 00:46:05;;;;;;;9.32;4.75;;;;;;;;;;5137007;27;20065;-83
2021/04/23 00:48:32;;;;;;;12.10;4.18;;;;;;;;;;5136997;27;20035;-83
2021/04/23 00:51:08;;;;;;;10.57;4.30;;;;;;;;;;5135760;27;20031;-83
2021/04/23 00:53:36;;;;;;;13.52;4.60;;;;;;;;;;5135680;27;20031;-83
2021/04/23 00:56:03;;;;;;;14.63;5.53;;;;;;;;;;5118593;27;20039;-83
2021/04/23 00:58:29;;;;;;;9.80;3.90;;;;;;;;;;5135544;27;20323;-83
2021/04/23 01:00:56;;;;;;;12.55;4.97;;;;;;;;;;5135517;27;20039;-83
2021/04/23 01:03:23;;;;;;;9.82;4.13;;;;;;;;;;5135700;27;20046;-83
2021/04/23 01:05:51;;;;;;;8.55;3.88;;;;;;;;;;5135624;27;20129;-83
2021/04/23 01:08:18;;;;;;;10.13;3.88;;;;;;;;;;5135326;27;20465;-83
2021/04/23 01:10:44;;;;;;;9.38;4.25;;;;;;;;;;5135365;27;20031;-83
2021/04/23 01:13:10;;;;;;;12.98;4.28;;;;;;;;;;5118267;27;20075;-83
2021/04/23 01:15:36;;;;;;;9.40;3.90;;;;;;;;;;5118352;27;20059;-83
2021/04/23 01:18:02;;;;;;;9.48;3.88;;;;;;;;;;5135262;27;20060;-83
2021/04/23 01:20:28;;;;;;;12.35;4.38;;;;;;;;;;5135162;27;20043;-83
2021/04/23 01:22:54;;;;;;;11.02;4.20;;;;;;;;;;5135016;27;20039;-83
2021/04/23 01:25:21;;;;;;;10.82;4.60;;;;;;;;;;5136403;27;20518;-83
2021/04/23 01:27:47;;;;;;;9.88;4.60;;;;;;;;;;5135005;27;20050;-83
2021/04/23 01:30:14;;;;;;;9.88;3.88;;;;;;;;;;5134960;27;20440;-83
2021/04/23 01:32:40;;;;;;;11.70;4.05;;;;;;;;;;5134989;27;20070;-83
2021/04/23 01:35:08;;;;;;;12.70;4.80;;;;;;;;;;5134697;27;20043;-83
2021/04/23 01:37:34;;;;;;;11.38;3.78;;;;;;;;;;5134756;27;20406;-83
2021/04/23 01:40:00;;;;;;;12.43;4.20;;;;;;;;;;5134770;27;20134;-83
2021/04/23 01:42:26;;;;;;;9.98;4.20;;;;;;;;;;5135995;27;20051;-83
2021/04/23 01:44:57;;;;;;;12.05;3.78;;;;;;;;;;5136000;27;20039;-83
2021/04/23 01:47:24;;;;;;;14.07;4.40;;;;;;;;;;5134753;27;20054;-83
2021/04/23 01:49:50;;;;;;;11.35;4.53;;;;;;;;;;5134707;27;20039;-83
2021/04/23 01:52:16;;;;;;;10.70;4.47;;;;;;;;;;5134600;27;20122;-83
2021/04/23 01:54:42;;;;;;;10.57;4.20;;;;;;;;;;5117689;27;20046;-83
2021/04/23 01:57:08;;;;;;;10.32;3.80;;;;;;;;;;5135636;27;20035;-83
2021/04/23 01:59:34;;;;;;;11.10;4.00;;;;;;;;;;5134465;27;20115;-83
2021/04/23 02:02:01;;;;;;;12.00;4.28;;;;;;;;;;5134358;27;20039;-83
2021/04/23 02:04:27;;;;;;;11.88;3.95;;;;;;;;;;5134352;27;20031;-83
2021/04/23 02:06:54;;;;;;;12.00;4.65;;;;;;;;;;5134489;27;20058;-83
2021/04/23 02:09:20;;;;;;;13.77;4.10;;;;;;;;;;5134402;27;20409;-83
2021/04/23 02:11:47;;;;;;;11.07;4.82;;;;;;;;;;5134266;27;20339;-83
2021/04/23 02:14:13;;;;;;;10.05;3.80;;;;;;;;;;5134293;27;20038;-83
2021/04/23 02:16:39;;;;;;;9.07;4.00;;;;;;;;;;5135225;27;20060;-83
2021/04/23 02:19:06;;;;;;;11.80;4.70;;;;;;;;;;5133924;27;20230;-83
2021/04/23 02:21:32;;;;;;;13.13;4.03;;;;;;;;;;5134034;27;20039;-83
2021/04/23 02:23:58;;;;;;;8.95;3.97;;;;;;;;;;5135218;27;20035;-83
2021/04/23 02:26:24;;;;;;;10.13;4.63;;;;;;;;;;5134037;27;20046;-83
2021/04/23 02:28:50;;;;;;;10.98;4.15;;;;;;;;;;5135230;27;20038;-83
2021/04/23 02:31:18;;;;;;;10.57;3.97;;;;;;;;;;5116726;27;20111;-82
2021/04/23 02:33:45;;;;;;;14.05;4.57;;;;;;;;;;5134859;27;20043;-83
2021/04/23 02:36:11;;;;;;;10.38;3.67;;;;;;;;;;5116425;27;20053;-83
2021/04/23 02:38:37;;;;;;;11.88;4.53;;;;;;;;;;5133655;27;20077;-83
2021/04/23 02:41:03;;;;;;;11.63;3.95;;;;;;;;;;5134773;27;20039;-83
2021/04/23 02:43:31;;;;;;;9.63;3.83;;;;;;;;;;5116570;27;20035;-83
2021/04/23 02:45:57;;;;;;;7.13;3.75;;;;;;;;;;5116378;27;20112;-83
2021/04/23 02:48:25;;;;;;;9.85;3.55;;;;;;;;;;5133527;27;20031;-83
2021/04/23 02:50:52;;;;;;;12.65;3.92;;;;;;;;;;5133759;27;20039;-83
2021/04/23 02:53:18;;;;;;;8.32;3.60;;;;;;;;;;5133414;27;20054;-83
2021/04/23 02:55:44;;;;;;;10.02;3.40;;;;;;;;;;5133518;27;20039;-83
2021/04/23 02:58:14;;;;;;;15.68;3.63;;;;;;;;;;5133806;27;20035;-83
2021/04/23 03:00:41;;;;;;;9.57;3.83;;;;;;;;;;5116114;27;20039;-83
2021/04/23 03:03:08;;;;;;;12.18;4.07;;;;;;;;;;5133285;27;20118;-83
2021/04/23 03:05:34;;;;;;;8.63;4.10;;;;;;;;;;5116205;27;20125;-83
2021/04/23 03:08:02;;;;;;;14.18;4.32;;;;;;;;;;5116241;27;20062;-83
2021/04/23 03:10:29;;;;;;;10.52;3.80;;;;;;;;;;5133050;27;20039;-82
2021/04/23 03:12:56;;;;;;;8.60;3.60;;;;;;;;;;5133106;27;20099;-83
2021/04/23 03:15:23;;;;;;;6.68;3.20;;;;;;;;;;5132985;27;20046;-83
2021/04/23 03:17:50;;;;;;;9.70;3.35;;;;;;;;;;5133314;27;20037;-90
2021/04/23 03:20:16;;;;;;;10.13;3.60;;;;;;;;;;5132870;27;20110;-83
2021/04/23 03:22:42;;;;;;;10.18;3.88;;;;;;;;;;5132815;27;20078;-83
2021/04/23 03:25:09;;;;;;;11.20;3.83;;;;;;;;;;5115715;27;20039;-83
2021/04/23 03:27:35;;;;;;;11.15;4.20;;;;;;;;;;5132605;27;20091;-83
2021/04/23 03:30:01;;;;;;;8.40;4.18;;;;;;;;;;5132558;27;20043;-83
2021/04/23 03:32:28;;;;;;;8.73;3.95;;;;;;;;;;5132627;27;20055;-83
2021/04/23 03:34:54;;;;;;;13.65;3.45;;;;;;;;;;5132623;27;20038;-84
2021/04/23 03:37:20;;;;;;;8.20;3.67;;;;;;;;;;5133683;27;20039;-83
2021/04/23 03:39:46;;;;;;;10.50;3.50;;;;;;;;;;5132440;27;20523;-83
2021/04/23 03:42:12;;;;;;;12.13;3.80;;;;;;;;;;5132535;27;20067;-83
2021/04/23 03:44:38;;;;;;;7.47;3.33;;;;;;;;;;5133598;27;20435;-86
2021/04/23 03:47:04;;;;;;;11.40;3.53;;;;;;;;;;5132461;27;20070;-83
2021/04/23 03:49:30;;;;;;;8.70;3.35;;;;;;;;;;5132476;27;20039;-83
2021/04/23 03:51:56;;;;;;;9.50;3.33;;;;;;;;;;5133866;27;20067;-83
2021/04/23 03:54:22;;;;;;;7.43;3.40;;;;;;;;;;5132445;27;20390;-82
2021/04/23 03:56:48;;;;;;;10.20;3.33;;;;;;;;;;5132175;27;20080;-82
2021/04/23 03:59:14;;;;;;;8.48;3.45;;;;;;;;;;5133266;27;20078;-82
2021/04/23 04:01:41;;;;;;;8.55;3.58;;;;;;;;;;5132188;27;20474;-82
2021/04/23 04:04:07;;;;;;;9.55;3.45;;;;;;;;;;5133322;27;20096;-82
2021/04/23 04:06:36;;;;;;;11.77;3.28;;;;;;;;;;5132023;27;20386;-82
2021/04/23 04:09:05;;;;;;;10.45;3.65;;;;;;;;;;5132338;27;20096;-82
2021/04/23 04:11:31;;;;;;;11.90;4.25;;;;;;;;;;5114923;27;20039;-82
2021/04/23 04:13:57;;;;;;;9.27;3.83;;;;;;;;;;5132161;27;20131;-82
2021/04/23 04:16:23;;;;;;;10.07;3.22;;;;;;;;;;5133234;27;20108;-82
2021/04/23 04:18:49;;;;;;;9.68;3.97;;;;;;;;;;5133098;27;20456;-82
2021/04/23 04:21:15;;;;;;;9.00;3.28;;;;;;;;;;5132019;27;20060;-82
2021/04/23 04:23:41;;;;;;;12.57;3.20;;;;;;;;;;5131885;28;20482;-83
2021/04/23 04:26:07;;;;;;;9.43;3.40;;;;;;;;;;5131759;28;20038;-82
2021/04/23 04:28:33;;;;;;;8.90;3.50;;;;;;;;;;5133033;27;20609;-82
2021/04/23 04:31:00;;;;;;;14.77;3.95;;;;;;;;;;5131971;27;20075;-82
2021/04/23 04:33:26;;;;;;;13.00;3.50;;;;;;;;;;5133120;27;20402;-82
2021/04/23 04:35:52;;;;;;;10.82;3.75;;;;;;;;;;5132729;27;20051;-81
2021/04/23 04:38:18;;;;;;;10.70;3.85;;;;;;;;;;5132963;27;20035;-83
2021/04/23 04:40:44;;;;;;;11.02;3.60;;;;;;;;;;5132749;27;20493;-83
2021/04/23 04:43:11;;;;;;;9.65;3.45;;;;;;;;;;5131728;28;20040;-83
2021/04/23 04:45:37;;;;;;;10.68;3.22;;;;;;;;;;5131688;27;20039;-84
2021/04/23 04:48:03;;;;;;;11.85;3.42;;;;;;;;;;5114704;28;20061;-83
2021/04/23 04:50:31;;;;;;;9.98;3.00;;;;;;;;;;5131712;28;20046;-83
2021/04/23 04:52:58;;;;;;;7.57;3.35;;;;;;;;;;5131657;28;20058;-82
2021/04/23 04:55:26;;;;;;;7.40;3.17;;;;;;;;;;5114572;28;20031;-83
2021/04/23 04:57:52;;;;;;;10.75;3.53;;;;;;;;;;5114465;28;20405;-84
2021/04/23 05:00:18;;;;;;;16.85;3.42;;;;;;;;;;5131503;27;20116;-83
2021/04/23 05:02:44;;;;;;;10.95;3.38;;;;;;;;;;5132820;27;20067;-82
2021/04/23 05:05:10;;;;;;;12.60;3.40;;;;;;;;;;5132715;27;20115;-83
2021/04/23 05:07:37;;;;;;;12.60;2.92;;;;;;;;;;5131483;28;20039;-83
2021/04/23 05:10:05;;;;;;;10.23;3.38;;;;;;;;;;5132577;27;20051;-83
2021/04/23 05:12:31;;;;;;;14.10;3.85;;;;;;;;;;5132632;27;20037;-82
2021/04/23 05:14:57;;;;;;;8.23;3.88;;;;;;;;;;5132783;27;20066;-83
2021/04/23 05:17:23;;;;;;;15.85;3.97;;;;;;;;;;5114518;28;20035;-83
2021/04/23 05:19:51;;;;;;;11.35;3.65;;;;;;;;;;5133198;27;20386;-81
2021/04/23 05:22:17;;;;;;;10.45;3.35;;;;;;;;;;5136349;27;20046;-82
2021/04/23 05:24:43;;;;;;;9.75;3.45;;;;;;;;;;5136263;27;20039;-82
2021/04/23 05:27:09;;;;;;;9.48;3.10;;;;;;;;;;5135036;27;20027;-82
2021/04/23 05:29:35;;;;;;;4.55;2.38;;;;;;;;;;5135093;27;20401;-81
2021/04/23 05:32:02;;;;;;;9.63;3.33;;;;;;;;;;5136233;27;20077;-81
2021/04/23 05:34:29;;;;;;;10.27;3.55;;;;;;;;;;5136295;27;20039;-83
2021/04/23 05:36:55;;;;;;;9.38;3.78;;;;;;;;;;5135918;27;20047;-82
2021/04/23 05:39:21;;;;;;;8.23;2.55;;;;;;;;;;5134532;27;20164;-83
2021/04/23 05:41:47;;;;;;;11.13;3.10;;;;;;;;;;5136020;27;20037;-83
2021/04/23 05:44:13;;;;;;;9.55;2.97;;;;;;;;;;5134660;27;20035;-82
2021/04/23 05:46:39;;;;;;;10.30;3.40;;;;;;;;;;5117586;27;20035;-83
2021/04/23 05:49:06;;;;;;;13.07;3.60;;;;;;;;;;5135964;27;20066;-82
2021/04/23 05:51:32;;;;;;;9.07;3.40;;;;;;;;;;5134552;27;20084;-83
2021/04/23 05:53:58;;;;;;;7.80;3.03;;;;;;;;;;5117848;27;20046;-81
2021/04/23 05:56:25;;;;;;;9.13;2.30;;;;;;;;;;5135851;27;20107;-81
2021/04/23 05:58:51;;;;;;;10.82;3.67;;;;;;;;;;5134436;27;20043;-80
2021/04/23 06:01:17;;;;;;;9.23;2.45;;;;;;;;;;5134483;27;20042;-84
2021/04/23 06:03:43;;;;;;;10.73;3.38;;;;;;;;;;5135568;27;20042;-83
2021/04/23 06:06:09;;;;;;;6.78;2.30;;;;;;;;;;5134247;27;20035;-84
2021/04/23 06:08:35;;;;;;;8.23;2.80;;;;;;;;;;5134325;27;20095;-85
2021/04/23 06:11:05;;;;;;;14.93;3.33;;;;;;;;;;5134365;27;20108;-83
2021/04/23 06:13:31;;;;;;;11.20;2.53;;;;;;;;;;5134303;27;20478;-84
2021/04/23 06:15:57;;;;;;;6.97;2.80;;;;;;;;;;5135452;27;20121;-84
2021/04/23 06:18:23;;;;;;;8.40;2.67;;;;;;;;;;5117096;27;20085;-84
2021/04/23 06:20:49;;;;;;;5.90;2.22;;;;;;;;;;5133797;27;20031;-85
2021/04/23 06:23:15;;;;;;;8.40;2.60;;;;;;;;;;5134044;27;20039;-84
2021/04/23 06:25:41;;;;;;;11.10;3.15;;;;;;;;;;5134025;27;20031;-84
2021/04/23 06:28:09;;;;;;;9.65;3.03;;;;;;;;;;5135032;27;20043;-85
2021/04/23 06:30:35;;;;;;;9.02;3.33;;;;;;;;;;5116900;27;20099;-84
2021/04/23 06:33:06;;;;;;;6.32;2.50;;;;;;;;;;5115898;27;20027;-83
2021/04/23 06:35:32;;;;;;;8.27;2.97;;;;;;;;;;5133713;27;20054;-85
2021/04/23 06:37:58;;;;;;;13.05;3.20;;;;;;;;;;5116669;27;20494;-84
2021/04/23 06:40:24;;;;;;;8.48;2.65;;;;;;;;;;5116597;27;20195;-83
2021/04/23 06:42:50;;;;;;;11.90;2.53;;;;;;;;;;5133565;27;20597;-83
2021/04/23 06:45:17;;;;;;;7.47;2.67;;;;;;;;;;5133675;27;20043;-83
2021/04/23 06:47:43;;;;;;;9.18;2.60;;;;;;;;;;5133423;27;20046;-83
2021/04/23 06:50:11;;;;;;;10.13;2.83;;;;;;;;;;5116391;27;20043;-82
2021/04/23 06:52:37;;;;;;;9.15;2.67;;;;;;;;;;5133495;27;20035;-82
2021/04/23 06:55:04;;;;;;;6.50;2.30;;;;;;;;;;5133463;27;20058;-82
2021/04/23 06:57:30;;;;;;;8.20;2.92;;;;;;;;;;5134581;27;20038;-82
2021/04/23 06:59:56;;;;;;;6.78;2.75;;;;;;;;;;5134407;27;20039;-82
2021/04/23 07:02:22;;;;;;;9.43;3.10;;;;;;;;;;5133082;27;20126;-82
2021/04/23 07:04:48;;;;;;;15.60;3.15;;;;;;;;;;5134419;27;20073;-82
2021/04/23 07:07:14;;;;;;;48.80;4.30;;;;;;;;;;5134315;27;20118;-82
2021/04/23 07:09:40;;;;;;;10.73;3.50;;;;;;;;;;5134292;27;20035;-82
2021/04/23 07:12:07;;;;;;;9.82;3.25;;;;;;;;;;5134339;27;20103;-83
2021/04/23 07:14:33;;;;;;;10.27;3.30;;;;;;;;;;5131198;27;20092;-84
2021/04/23 07:17:00;;;;;;;11.48;3.47;;;;;;;;;;5132859;27;20039;-84
2021/04/23 07:19:26;;;;;;;10.30;3.72;;;;;;;;;;5132127;27;20050;-84
2021/04/23 07:21:52;;;;;;;10.48;3.28;;;;;;;;;;5132675;27;20474;-83
2021/04/23 07:24:20;;;;;;;12.20;4.13;;;;;;;;;;5132379;27;20092;-83
2021/04/23 07:26:47;;;;;;;13.70;4.13;;;;;;;;;;5133806;27;20043;-84
2021/04/23 07:29:13;;;;;;;13.18;3.97;;;;;;;;;;5132579;27;20038;-85
2021/04/23 07:31:39;;;;;;;7.88;3.45;;;;;;;;;;5115334;27;20039;-84
2021/04/23 07:34:05;;;;;;;9.10;3.55;;;;;;;;;;5115404;27;20050;-84
2021/04/23 07:36:31;;;;;;;10.25;3.95;;;;;;;;;;5133566;27;20047;-84
2021/04/23 07:38:57;;;;;;;9.75;3.65;;;;;;;;;;5133504;27;20122;-85
2021/04/23 07:41:23;;;;;;;7.75;3.30;;;;;;;;;;5132426;27;20049;-85
2021/04/23 07:43:49;;;;;;;11.20;3.92;;;;;;;;;;5132119;27;20046;-84
2021/04/23 07:46:15;;;;;;;7.03;3.55;;;;;;;;;;5114994;27;20095;-85
2021/04/23 07:48:41;;;;;;;6.32;3.45;;;;;;;;;;5132271;27;20107;-85
2021/04/23 07:51:07;;;;;;;8.82;3.58;;;;;;;;;;5132357;27;20035;-83
2021/04/23 07:53:33;;;;;;;6.95;3.60;;;;;;;;;;5133568;27;20106;-82
2021/04/23 07:55:59;;;;;;;6.53;3.80;;;;;;;;;;5133522;27;20042;-86
2021/04/23 07:58:25;;;;;;;10.73;4.07;;;;;;;;;;5132183;27;20039;-84
2021/04/23 08:00:52;;;;;;;9.13;4.13;;;;;;;;;;5133137;27;20521;-83
2021/04/23 08:03:18;;;;;;;8.77;4.20;;;;;;;;;;5132182;27;20039;-83
2021/04/23 08:05:44;;;;;;;12.50;4.25;;;;;;;;;;5131929;27;20060;-83
2021/04/23 08:08:10;;;;;;;9.07;3.63;;;;;;;;;;5132711;27;20092;-83
2021/04/23 08:10:36;;;;;;;7.35;3.90;;;;;;;;;;5131684;27;20119;-83
2021/04/23 08:13:07;;;;;;;6.75;4.18;;;;;;;;;;5131894;27;20055;-84
2021/04/23 08:15:33;;;;;;;7.43;4.38;;;;;;;;;;5133262;27;20046;-84
2021/04/23 08:17:59;;;;;;;14.05;4.47;;;;;;;;;;5097906;28;20047;-83
2021/04/23 08:20:25;;;;;;;12.07;4.20;;;;;;;;;;5132842;27;20054;-82
2021/04/23 08:22:51;;;;;;;10.18;3.78;;;;;;;;;;5132933;27;20118;-83
2021/04/23 08:25:18;;;;;;;5.25;3.40;;;;;;;;;;5131669;27;20039;-86
2021/04/23 08:27:44;;;;;;;6.70;3.55;;;;;;;;;;5114586;27;20066;-83
2021/04/23 08:30:11;;;;;;;6.55;3.88;;;;;;;;;;5114725;28;20111;-84
2021/04/23 08:32:37;;;;;;;7.32;3.75;;;;;;;;;;5131818;28;20063;-84
2021/04/23 08:35:03;;;;;;;11.35;4.10;;;;;;;;;;5131627;27;20069;-84
2021/04/23 08:37:30;;;;;;;11.55;3.75;;;;;;;;;;5114673;28;20122;-84
2021/04/23 08:39:57;;;;;;;9.88;3.67;;;;;;;;;;5114568;28;20118;-85
2021/04/23 08:42:23;;;;;;;6.85;3.72;;;;;;;;;;5114789;27;20043;-83
2021/04/23 08:44:52;;;;;;;7.55;3.63;;;;;;;;;;5131845;27;20485;-85
2021/04/23 08:47:19;;;;;;;10.77;3.92;;;;;;;;;;5132923;27;20163;-85
2021/04/23 08:49:45;;;;;;;7.40;3.53;;;;;;;;;;5114728;28;20042;-83
2021/04/23 08:52:11;;;;;;;10.25;3.95;;;;;;;;;;5114666;28;20046;-83
2021/04/23 08:54:37;;;;;;;10.52;4.18;;;;;;;;;;5131876;27;20087;-84
2021/04/23 08:57:03;;;;;;;11.27;4.18;;;;;;;;;;5135635;27;20067;-83
2021/04/23 08:59:29;;;;;;;10.40;4.05;;;;;;;;;;5135531;27;20065;-82
2021/04/23 09:01:55;;;;;;;8.85;3.70;;;;;;;;;;5135621;27;20043;-82
2021/04/23 09:04:21;;;;;;;11.75;3.83;;;;;;;;;;5133870;27;20145;-82
2021/04/23 09:06:59;;;;;;;9.38;4.18;;;;;;;;;;5136286;27;20031;-82
2021/04/23 09:09:25;;;;;;;7.00;3.42;;;;;;;;;;5136664;27;20039;-82
2021/04/23 09:11:51;;;;;;;13.18;3.78;;;;;;;;;;5135298;27;20057;-83
2021/04/23 09:14:21;;;;;;;8.27;3.90;;;;;;;;;;5134215;27;20039;-82
2021/04/23 09:16:47;;;;;;;6.60;3.90;;;;;;;;;;5135662;27;20538;-83
2021/04/23 09:19:13;;;;;;;8.63;4.05;;;;;;;;;;5134990;27;20039;-83
2021/04/23 09:22:06;;;;;;;7.30;4.10;;;;;;;;;;5134896;27;20558;-83
2021/04/23 09:24:33;;;;;;;9.93;4.55;;;;;;;;;;5120174;27;20074;-85
2021/04/23 09:27:00;;;;;;;9.43;4.15;;;;;;;;;;5117587;27;20035;-84
2021/04/23 09:29:30;;;;;;;10.60;4.20;;;;;;;;;;5117111;27;20443;-83
2021/04/23 09:31:56;;;;;;;8.98;4.00;;;;;;;;;;5134860;27;20689;-83
2021/04/23 09:34:23;;;;;;;7.78;3.65;;;;;;;;;;5134929;27;20035;-84
2021/04/23 09:36:49;;;;;;;8.85;3.42;;;;;;;;;;5135732;27;20402;-85
2021/04/23 09:39:22;;;;;;;7.47;3.45;;;;;;;;;;5118064;27;20454;-83
2021/04/23 09:41:54;;;;;;;6.80;3.67;;;;;;;;;;5117742;27;20027;-83
2021/04/23 09:44:27;;;;;;;5.05;3.40;;;;;;;;;;5135833;27;20475;-83
2021/04/23 09:46:53;;;;;;;;;;;;;;;;;;5134838;27;20035;-83
2021/04/23 09:49:19;;;;;;;7.18;3.17;;;;;;;;;;5134239;27;20002;-82
2021/04/23 09:51:46;;;;;;;7.32;3.60;;;;;;;;;;5135748;27;20118;-85
2021/04/23 09:54:13;;;;;;;9.30;4.00;;;;;;;;;;5117504;27;20385;-85
2021/04/23 09:56:39;;;;;;;7.88;3.17;;;;;;;;;;5134331;27;20039;-84
2021/04/23 09:59:15;;;;;;;6.63;3.03;;;;;;;;;;5117744;27;20433;-85
2021/04/23 10:02:00;;;;;;;5.78;2.67;;;;;;;;;;5117220;27;20055;-83
2021/04/23 10:04:27;;;;;;;6.80;3.05;;;;;;;;;;5135467;27;20088;-83
2021/04/23 10:07:12;;;;;;;4.93;2.95;;;;;;;;;;5134322;27;20046;-83
2021/04/23 10:09:57;;;;;;;7.18;2.88;;;;;;;;;;5117290;27;20085;-84
2021/04/23 10:12:29;;;;;;;7.35;3.28;;;;;;;;;;5135504;27;20084;-84
2021/04/23 10:14:57;;;;;;;9.02;3.60;;;;;;;;;;5135375;27;20402;-83
2021/04/23 10:17:23;;;;;;;7.90;3.15;;;;;;;;;;5134078;27;20110;-84
2021/04/23 10:19:49;;;;;;;10.00;3.25;;;;;;;;;;5134036;27;20387;-83
2021/04/23 10:22:15;;;;;;;5.75;3.22;;;;;;;;;;5116966;27;20043;-83
2021/04/23 10:24:41;;;;;;;6.28;3.03;;;;;;;;;;5133950;27;20059;-84
2021/04/23 10:27:07;;;;;;;6.88;3.25;;;;;;;;;;5117818;27;20065;-83
2021/04/23 10:29:33;;;;;;;5.25;2.90;;;;;;;;;;5135242;27;20065;-83
2021/04/23 10:31:59;;;;;;;5.57;3.10;;;;;;;;;;5133858;27;20113;-83
2021/04/23 10:34:25;;;;;;;6.57;3.10;;;;;;;;;;5133882;27;20123;-86
2021/04/23 10:36:51;;;;;;;5.93;2.97;;;;;;;;;;5116485;27;20047;-84
2021/04/23 10:39:17;;;;;;;8.07;3.30;;;;;;;;;;5133540;27;20438;-83
2021/04/23 10:41:43;;;;;;;7.18;3.53;;;;;;;;;;5134862;27;20035;-84
2021/04/23 10:44:10;;;;;;;6.50;3.30;;;;;;;;;;5133519;27;20497;-84
2021/04/23 10:46:47;;;;;;;5.90;3.88;;;;;;;;;;5134781;27;20043;-84
2021/04/23 10:49:13;;;;;;;6.65;3.58;;;;;;;;;;5133496;27;20062;-84
2021/04/23 10:51:42;;;;;;;8.05;3.35;;;;;;;;;;5133219;27;20467;-84
2021/04/23 10:54:14;;;;;;;7.88;3.60;;;;;;;;;;5116732;27;20035;-83
2021/04/23 10:56:41;;;;;;;5.07;3.30;;;;;;;;;;5134430;27;20455;-83
2021/04/23 10:59:07;;;;;;;6.15;3.10;;;;;;;;;;5116268;27;20047;-83
2021/04/23 11:01:37;;;;;;;9.13;3.90;;;;;;;;;;5134393;27;20035;-83
2021/04/23 11:04:16;;;;;;;7.25;3.60;;;;;;;;;;5133076;27;20059;-83
2021/04/23 11:06:43;;;;;;;8.07;3.80;;;;;;;;;;5133091;27;20031;-84
2021/04/23 11:09:10;;;;;;;7.32;3.80;;;;;;;;;;5133170;27;20126;-83
2021/04/23 11:11:37;;;;;;;7.80;3.75;;;;;;;;;;5133150;27;20117;-83
2021/04/23 11:14:19;;;;;;;6.55;3.60;;;;;;;;;;5132985;27;20027;-83
2021/04/23 11:16:46;;;;;;;;;;;;;;;;;;5133335;27;20546;-83
2021/04/23 11:19:18;;;;;;;5.75;3.50;;;;;;;;;;5133535;27;19915;-83
2021/04/23 11:21:45;;;;;;;9.07;3.10;;;;;;;;;;5134162;27;20035;-83
2021/04/23 11:24:15;;;;;;;7.40;3.10;;;;;;;;;;5132835;27;20035;-83
2021/04/23 11:26:57;;;;;;;8.13;3.42;;;;;;;;;;5133926;27;20126;-83
2021/04/23 11:29:24;;;;;;;8.90;3.38;;;;;;;;;;5134026;27;20050;-83
2021/04/23 11:32:08;;;;;;;6.15;3.10;;;;;;;;;;5133879;27;20041;-84
2021/04/23 11:34:42;;;;;;;5.45;3.17;;;;;;;;;;5132691;27;20505;-84
2021/04/23 11:37:09;;;;;;;7.05;3.40;;;;;;;;;;5132498;27;20074;-85
2021/04/23 11:39:41;;;;;;;7.97;2.90;;;;;;;;;;5132537;27;20039;-84
2021/04/23 11:42:09;;;;;;;5.27;3.10;;;;;;;;;;5133973;27;20104;-83
2021/04/23 11:44:46;;;;;;;9.32;3.60;;;;;;;;;;5115819;27;20108;-84
2021/04/23 11:47:12;;;;;;;8.65;3.42;;;;;;;;;;5115414;27;20039;-83
2021/04/23 11:49:38;;;;;;;7.72;3.75;;;;;;;;;;5132527;27;20039;-82
2021/04/23 11:52:04;;;;;;;6.72;3.50;;;;;;;;;;5132278;27;20035;-83
2021/04/23 11:54:37;;;;;;;4.70;2.92;;;;;;;;;;5132313;27;20031;-82
2021/04/23 11:57:04;;;;;;;8.10;3.33;;;;;;;;;;5132157;27;20031;-82
2021/04/23 11:59:30;;;;;;;7.78;3.10;;;;;;;;;;5115178;27;20035;-83
2021/04/23 12:01:56;;;;;;;5.25;3.13;;;;;;;;;;5127902;27;20043;-82
2021/04/23 12:04:49;;;;;;;7.10;3.10;;;;;;;;;;5131911;27;20538;-83
2021/04/23 12:07:15;;;;;;;8.27;3.35;;;;;;;;;;5133028;27;20406;-83
2021/04/23 12:09:41;;;;;;;5.28;3.20;;;;;;;;;;5132055;27;20046;-85
2021/04/23 12:12:09;;;;;;;5.50;2.90;;;;;;;;;;5114920;28;20039;-82
2021/04/23 12:14:45;;;;;;;6.60;3.45;;;;;;;;;;5131935;27;20466;-82
2021/04/23 12:17:11;;;;;;;6.40;3.28;;;;;;;;;;5132064;27;20043;-83
2021/04/23 12:19:37;;;;;;;8.43;2.97;;;;;;;;;;5132085;27;20035;-83
2021/04/23 12:22:03;;;;;;;6.20;3.20;;;;;;;;;;5131895;27;20043;-82
2021/04/23 12:24:30;;;;;;;5.53;3.35;;;;;;;;;;5131809;28;20035;-83
2021/04/23 12:26:56;;;;;;;6.07;3.22;;;;;;;;;;5131819;28;20066;-82
2021/04/23 12:29:25;;;;;;;6.55;3.10;;;;;;;;;;5131724;27;20039;-83
2021/04/23 12:31:51;;;;;;;5.68;3.42;;;;;;;;;;5136041;27;20039;-82
2021/04/23 12:34:17;;;;;;;7.40;3.38;;;;;;;;;;5137313;27;20087;-82
2021/04/23 12:36:44;;;;;;;8.27;3.28;;;;;;;;;;5137032;27;20770;-82
2021/04/23 12:39:23;;;;;;;6.93;3.03;;;;;;;;;;5136059;27;20062;-83
2021/04/23 12:41:51;;;;;;;8.85;3.17;;;;;;;;;;5135980;27;20031;-83
2021/04/23 12:44:30;;;;;;;4.57;2.83;;;;;;;;;;5135799;27;20027;-83
2021/04/23 12:46:59;;;;;;;15.38;3.85;;;;;;;;;;5118828;27;20042;-80
2021/04/23 12:49:25;;;;;;;8.07;2.97;;;;;;;;;;5136940;27;20039;-82
2021/04/23 12:51:52;;;;;;;4.28;3.20;;;;;;;;;;5137015;27;20374;-82
2021/04/23 12:54:19;;;;;;;7.05;3.10;;;;;;;;;;5136900;27;20031;-82
2021/04/23 12:56:52;;;;;;;6.50;3.50;;;;;;;;;;5136739;27;20043;-82
2021/04/23 12:59:34;;;;;;;6.07;3.00;;;;;;;;;;5135589;27;20039;-82
2021/04/23 13:02:01;;;;;;;3.85;2.50;;;;;;;;;;5135660;27;20031;-83
2021/04/23 13:04:27;;;;;;;6.40;2.92;;;;;;;;;;5135645;27;20042;-83
2021/04/23 13:06:54;;;;;;;6.03;3.03;;;;;;;;;;5135263;27;20114;-83
2021/04/23 13:09:21;;;;;;;6.07;3.00;;;;;;;;;;5114525;27;20031;-82
2021/04/23 13:11:48;;;;;;;6.18;3.00;;;;;;;;;;5117210;27;20665;-82
2021/04/23 13:14:14;;;;;;;5.25;2.75;;;;;;;;;;5116705;27;20132;-83
2021/04/23 13:16:56;;;;;;;4.28;2.55;;;;;;;;;;5135372;27;20031;-83
2021/04/23 13:19:33;;;;;;;7.75;2.75;;;;;;;;;;5136365;27;20049;-83
2021/04/23 13:21:59;;;;;;;4.22;2.47;;;;;;;;;;5135194;27;20107;-84
2021/04/23 13:24:25;;;;;;;5.32;3.00;;;;;;;;;;5135148;27;20034;-83
2021/04/23 13:26:51;;;;;;;5.53;2.78;;;;;;;;;;5134644;27;20039;-83
2021/04/23 13:29:17;;;;;;;5.68;2.80;;;;;;;;;;5135068;27;20100;-84
2021/04/23 13:31:43;;;;;;;4.18;2.90;;;;;;;;;;5135038;27;20432;-83
2021/04/23 13:34:10;;;;;;;5.28;3.20;;;;;;;;;;5134971;27;20076;-83
2021/04/23 13:36:36;;;;;;;7.50;3.08;;;;;;;;;;5117788;27;20108;-83
2021/04/23 13:39:04;;;;;;;5.60;3.03;;;;;;;;;;5134737;27;20428;-83
2021/04/23 13:41:37;;;;;;;5.13;3.70;;;;;;;;;;5134313;27;20038;-84
2021/04/23 13:44:03;;;;;;;6.07;2.90;;;;;;;;;;5117968;27;20062;-84
2021/04/23 13:46:30;;;;;;;6.93;3.05;;;;;;;;;;5135779;27;20043;-83
2021/04/23 13:48:56;;;;;;;6.30;2.90;;;;;;;;;;5134684;27;20046;-83
2021/04/23 13:51:23;;;;;;;6.28;3.25;;;;;;;;;;5134778;27;20039;-82
2021/04/23 13:53:49;;;;;;;5.13;2.83;;;;;;;;;;5134618;27;20035;-83
2021/04/23 13:56:20;;;;;;;4.13;2.47;;;;;;;;;;5135756;27;20039;-83
2021/04/23 13:58:52;;;;;;;6.55;2.78;;;;;;;;;;5117436;27;20043;-82
2021/04/23 14:01:29;;;;;;;5.70;3.15;;;;;;;;;;5133784;27;20188;-84
2021/04/23 14:03:55;;;;;;;5.18;2.92;;;;;;;;;;5134027;27;20474;-83
2021/04/23 14:06:21;;;;;;;19.20;3.08;;;;;;;;;;5134396;27;20035;-84
2021/04/23 14:08:47;;;;;;;5.25;2.53;;;;;;;;;;5134443;27;20039;-83
2021/04/23 14:11:14;;;;;;;5.85;2.97;;;;;;;;;;5135521;27;20042;-82
2021/04/23 14:13:40;;;;;;;6.93;2.92;;;;;;;;;;5135491;27;20062;-84
2021/04/23 14:16:06;;;;;;;7.25;2.85;;;;;;;;;;5135274;27;20034;-84
2021/04/23 14:18:32;;;;;;;3.95;2.50;;;;;;;;;;5135386;27;20512;-84
2021/04/23 14:20:59;;;;;;;6.25;2.92;;;;;;;;;;5133975;27;20539;-83
2021/04/23 14:23:25;;;;;;;4.63;2.70;;;;;;;;;;5135238;27;20043;-83
2021/04/23 14:25:52;;;;;;;5.80;2.85;;;;;;;;;;5116890;27;20045;-84
2021/04/23 14:28:18;;;;;;;4.65;2.55;;;;;;;;;;5135017;27;20062;-85
2021/04/23 14:30:44;;;;;;;5.57;2.83;;;;;;;;;;5116937;27;20043;-83
2021/04/23 14:33:10;;;;;;;7.07;2.67;;;;;;;;;;5116881;27;20480;-83
2021/04/23 14:35:36;;;;;;;5.05;2.70;;;;;;;;;;5134502;27;20494;-83
2021/04/23 14:38:02;;;;;;;3.50;2.53;;;;;;;;;;5134827;27;20035;-83
2021/04/23 14:40:28;;;;;;;7.80;2.90;;;;;;;;;;5133548;27;20039;-83